sensor_id;sensor_type;location;lat;lon;timestamp;P1;durP1;ratioP1;P2;durP2;ratioP2
64938;SDS011;51453;47.738;7.420;2023-07-13T00:00:20;3.83;;;1.60;;
64938;SDS011;51453;47.738;7.420;2023-07-13T00:02:47;3.60;;;1.60;;
64938;SDS011;51453;47.738;7.420;2023-07-13T00:05:12;3.15;;;1.58;;
64938;SDS011;51453;47.738;7.420;2023-07-13T00:07:38;3.85;;;1.67;;
64938;SDS011;51453;47.738;7.420;2023-07-13T00:10:04;1.48;;;1.38;;
64938;SDS011;51453;47.738;7.420;2023-07-13T00:12:32;3.17;;;1.90;;
64938;SDS011;51453;47.738;7.420;2023-07-13T00:15:00;7.95;;;2.35;;
64938;SDS011;51453;47.738;7.420;2023-07-13T00:17:29;4.55;;;1.70;;
64938;SDS011;51453;47.738;7.420;2023-07-13T00:19:55;3.08;;;1.58;;
64938;SDS011;51453;47.738;7.420;2023-07-13T00:22:21;3.45;;;1.90;;
64938;SDS011;51453;47.738;7.420;2023-07-13T00:24:50;4.90;;;1.83;;
64938;SDS011;51453;47.738;7.420;2023-07-13T00:27:17;4.63;;;2.00;;
64938;SDS011;51453;47.738;7.420;2023-07-13T00:29:43;3.90;;;1.70;;
64938;SDS011;51453;47.738;7.420;2023-07-13T00:32:09;2.97;;;1.50;;
64938;SDS011;51453;47.738;7.420;2023-07-13T00:34:36;4.32;;;1.80;;
64938;SDS011;51453;47.738;7.420;2023-07-13T00:37:03;2.42;;;1.60;;
64938;SDS011;51453;47.738;7.420;2023-07-13T00:39:31;7.30;;;1.90;;
64938;SDS011;51453;47.738;7.420;2023-07-13T00:42:00;3.75;;;1.48;;
64938;SDS011;51453;47.738;7.420;2023-07-13T00:44:26;3.50;;;2.00;;
64938;SDS011;51453;47.738;7.420;2023-07-13T00:46:52;6.03;;;1.70;;
64938;SDS011;51453;47.738;7.420;2023-07-13T00:49:21;4.35;;;1.52;;
64938;SDS011;51453;47.738;7.420;2023-07-13T00:51:49;2.15;;;1.70;;
64938;SDS011;51453;47.738;7.420;2023-07-13T00:54:19;8.07;;;2.00;;
64938;SDS011;51453;47.738;7.420;2023-07-13T00:56:48;5.00;;;1.55;;
64938;SDS011;51453;47.738;7.420;2023-07-13T00:59:16;3.83;;;1.85;;
64938;SDS011;51453;47.738;7.420;2023-07-13T01:01:44;5.28;;;2.13;;
64938;SDS011;51453;47.738;7.420;2023-07-13T01:04:09;2.53;;;1.50;;
64938;SDS011;51453;47.738;7.420;2023-07-13T01:06:36;5.45;;;1.83;;
64938;SDS011;51453;47.738;7.420;2023-07-13T01:09:02;2.30;;;1.60;;
64938;SDS011;51453;47.738;7.420;2023-07-13T01:11:29;4.25;;;1.65;;
64938;SDS011;51453;47.738;7.420;2023-07-13T01:13:54;5.60;;;1.90;;
64938;SDS011;51453;47.738;7.420;2023-07-13T01:16:42;3.67;;;1.60;;
64938;SDS011;51453;47.738;7.420;2023-07-13T01:19:12;2.85;;;1.50;;
64938;SDS011;51453;47.738;7.420;2023-07-13T01:21:50;3.17;;;1.63;;
64938;SDS011;51453;47.738;7.420;2023-07-13T01:24:16;3.85;;;1.77;;
64938;SDS011;51453;47.738;7.420;2023-07-13T01:26:42;4.63;;;1.90;;
64938;SDS011;51453;47.738;7.420;2023-07-13T01:29:07;4.15;;;1.77;;
64938;SDS011;51453;47.738;7.420;2023-07-13T01:31:33;4.05;;;1.50;;
64938;SDS011;51453;47.738;7.420;2023-07-13T01:33:59;2.92;;;1.58;;
64938;SDS011;51453;47.738;7.420;2023-07-13T01:36:25;5.82;;;1.40;;
64938;SDS011;51453;47.738;7.420;2023-07-13T01:38:50;7.72;;;2.13;;
64938;SDS011;51453;47.738;7.420;2023-07-13T01:41:16;3.28;;;1.70;;
64938;SDS011;51453;47.738;7.420;2023-07-13T01:43:42;6.63;;;1.70;;
64938;SDS011;51453;47.738;7.420;2023-07-13T01:46:07;2.92;;;1.50;;
64938;SDS011;51453;47.738;7.420;2023-07-13T01:48:33;4.20;;;1.35;;
64938;SDS011;51453;47.738;7.420;2023-07-13T01:50:58;5.50;;;1.70;;
64938;SDS011;51453;47.738;7.420;2023-07-13T01:53:24;1.52;;;1.25;;
64938;SDS011;51453;47.738;7.420;2023-07-13T01:55:50;3.45;;;1.50;;
64938;SDS011;51453;47.738;7.420;2023-07-13T01:58:16;3.03;;;1.35;;
64938;SDS011;51453;47.738;7.420;2023-07-13T02:00:41;3.78;;;1.65;;
64938;SDS011;51453;47.738;7.420;2023-07-13T02:03:07;1.83;;;1.20;;
64938;SDS011;51453;47.738;7.420;2023-07-13T02:05:32;3.60;;;1.45;;
64938;SDS011;51453;47.738;7.420;2023-07-13T02:07:58;1.85;;;1.20;;
64938;SDS011;51453;47.738;7.420;2023-07-13T02:10:24;2.90;;;1.15;;
64938;SDS011;51453;47.738;7.420;2023-07-13T02:12:50;2.03;;;1.20;;
64938;SDS011;51453;47.738;7.420;2023-07-13T02:15:16;2.92;;;1.23;;
64938;SDS011;51453;47.738;7.420;2023-07-13T02:17:42;3.40;;;1.60;;
64938;SDS011;51453;47.738;7.420;2023-07-13T02:20:08;1.55;;;1.10;;
64938;SDS011;51453;47.738;7.420;2023-07-13T02:22:34;3.33;;;1.35;;
64938;SDS011;51453;47.738;7.420;2023-07-13T02:25:00;4.10;;;1.50;;
64938;SDS011;51453;47.738;7.420;2023-07-13T02:27:26;1.98;;;1.27;;
64938;SDS011;51453;47.738;7.420;2023-07-13T02:29:52;1.50;;;1.35;;
64938;SDS011;51453;47.738;7.420;2023-07-13T02:32:18;2.65;;;1.30;;
64938;SDS011;51453;47.738;7.420;2023-07-13T02:34:43;6.25;;;1.70;;
64938;SDS011;51453;47.738;7.420;2023-07-13T02:37:09;8.45;;;1.63;;
64938;SDS011;51453;47.738;7.420;2023-07-13T02:39:35;1.88;;;1.20;;
64938;SDS011;51453;47.738;7.420;2023-07-13T02:42:01;1.38;;;1.10;;
64938;SDS011;51453;47.738;7.420;2023-07-13T02:44:26;2.47;;;1.35;;
64938;SDS011;51453;47.738;7.420;2023-07-13T02:46:52;4.18;;;1.23;;
64938;SDS011;51453;47.738;7.420;2023-07-13T02:49:18;2.50;;;1.23;;
64938;SDS011;51453;47.738;7.420;2023-07-13T02:51:43;1.45;;;1.13;;
64938;SDS011;51453;47.738;7.420;2023-07-13T02:54:09;2.88;;;1.33;;
64938;SDS011;51453;47.738;7.420;2023-07-13T02:56:36;3.97;;;1.38;;
64938;SDS011;51453;47.738;7.420;2023-07-13T02:59:04;2.50;;;1.10;;
64938;SDS011;51453;47.738;7.420;2023-07-13T03:01:29;1.73;;;0.90;;
64938;SDS011;51453;47.738;7.420;2023-07-13T03:03:55;3.40;;;1.25;;
64938;SDS011;51453;47.738;7.420;2023-07-13T03:06:21;4.57;;;1.27;;
64938;SDS011;51453;47.738;7.420;2023-07-13T03:08:47;2.78;;;1.67;;
64938;SDS011;51453;47.738;7.420;2023-07-13T03:11:15;5.88;;;1.55;;
64938;SDS011;51453;47.738;7.420;2023-07-13T03:13:44;2.30;;;1.02;;
64938;SDS011;51453;47.738;7.420;2023-07-13T03:16:10;4.18;;;1.10;;
64938;SDS011;51453;47.738;7.420;2023-07-13T03:18:37;3.75;;;1.10;;
64938;SDS011;51453;47.738;7.420;2023-07-13T03:21:03;1.80;;;1.20;;
64938;SDS011;51453;47.738;7.420;2023-07-13T03:23:29;1.35;;;1.20;;
64938;SDS011;51453;47.738;7.420;2023-07-13T03:26:11;5.85;;;1.00;;
64938;SDS011;51453;47.738;7.420;2023-07-13T03:28:40;2.05;;;1.10;;
64938;SDS011;51453;47.738;7.420;2023-07-13T03:31:07;2.45;;;1.20;;
64938;SDS011;51453;47.738;7.420;2023-07-13T03:33:35;4.47;;;1.30;;
64938;SDS011;51453;47.738;7.420;2023-07-13T03:36:02;3.10;;;1.10;;
64938;SDS011;51453;47.738;7.420;2023-07-13T03:38:28;2.47;;;1.00;;
64938;SDS011;51453;47.738;7.420;2023-07-13T03:40:54;3.30;;;1.08;;
64938;SDS011;51453;47.738;7.420;2023-07-13T03:43:20;1.83;;;0.80;;
64938;SDS011;51453;47.738;7.420;2023-07-13T03:45:46;2.05;;;1.00;;
64938;SDS011;51453;47.738;7.420;2023-07-13T03:48:11;2.78;;;1.10;;
64938;SDS011;51453;47.738;7.420;2023-07-13T03:50:37;2.53;;;1.00;;
64938;SDS011;51453;47.738;7.420;2023-07-13T03:53:03;3.45;;;1.02;;
64938;SDS011;51453;47.738;7.420;2023-07-13T03:55:29;0.98;;;0.90;;
64938;SDS011;51453;47.738;7.420;2023-07-13T04:00:51;5.30;;;1.02;;
64938;SDS011;51453;47.738;7.420;2023-07-13T04:03:17;4.68;;;1.13;;
64938;SDS011;51453;47.738;7.420;2023-07-13T04:05:43;3.78;;;1.00;;
64938;SDS011;51453;47.738;7.420;2023-07-13T04:08:08;2.42;;;1.10;;
64938;SDS011;51453;47.738;7.420;2023-07-13T04:10:34;5.47;;;1.13;;
64938;SDS011;51453;47.738;7.420;2023-07-13T04:13:00;4.22;;;1.00;;
64938;SDS011;51453;47.738;7.420;2023-07-13T04:15:27;2.10;;;1.00;;
64938;SDS011;51453;47.738;7.420;2023-07-13T04:17:54;4.53;;;1.10;;
64938;SDS011;51453;47.738;7.420;2023-07-13T04:20:19;4.13;;;1.15;;
64938;SDS011;51453;47.738;7.420;2023-07-13T04:22:45;3.20;;;1.00;;
64938;SDS011;51453;47.738;7.420;2023-07-13T04:25:11;1.13;;;1.00;;
64938;SDS011;51453;47.738;7.420;2023-07-13T04:27:36;2.03;;;1.13;;
64938;SDS011;51453;47.738;7.420;2023-07-13T04:30:04;2.67;;;1.00;;
64938;SDS011;51453;47.738;7.420;2023-07-13T04:32:31;3.95;;;1.10;;
64938;SDS011;51453;47.738;7.420;2023-07-13T04:34:57;3.00;;;1.00;;
64938;SDS011;51453;47.738;7.420;2023-07-13T04:37:24;5.82;;;1.30;;
64938;SDS011;51453;47.738;7.420;2023-07-13T04:39:51;3.92;;;0.93;;
64938;SDS011;51453;47.738;7.420;2023-07-13T04:42:17;11.48;;;1.17;;
64938;SDS011;51453;47.738;7.420;2023-07-13T04:44:47;5.18;;;1.30;;
64938;SDS011;51453;47.738;7.420;2023-07-13T04:47:14;3.80;;;1.20;;
64938;SDS011;51453;47.738;7.420;2023-07-13T04:49:39;3.35;;;1.20;;
64938;SDS011;51453;47.738;7.420;2023-07-13T04:52:05;4.32;;;1.08;;
64938;SDS011;51453;47.738;7.420;2023-07-13T04:54:32;1.35;;;1.10;;
64938;SDS011;51453;47.738;7.420;2023-07-13T04:57:02;2.75;;;1.00;;
64938;SDS011;51453;47.738;7.420;2023-07-13T04:59:31;4.32;;;1.00;;
64938;SDS011;51453;47.738;7.420;2023-07-13T05:01:59;2.50;;;0.93;;
64938;SDS011;51453;47.738;7.420;2023-07-13T05:04:26;6.50;;;1.10;;
64938;SDS011;51453;47.738;7.420;2023-07-13T05:06:52;2.95;;;0.93;;
64938;SDS011;51453;47.738;7.420;2023-07-13T05:09:18;3.78;;;1.00;;
64938;SDS011;51453;47.738;7.420;2023-07-13T05:11:43;1.10;;;0.98;;
64938;SDS011;51453;47.738;7.420;2023-07-13T05:14:09;1.63;;;0.80;;
64938;SDS011;51453;47.738;7.420;2023-07-13T05:16:35;3.75;;;0.98;;
64938;SDS011;51453;47.738;7.420;2023-07-13T05:19:01;2.15;;;0.95;;
64938;SDS011;51453;47.738;7.420;2023-07-13T05:21:27;9.38;;;1.20;;
64938;SDS011;51453;47.738;7.420;2023-07-13T05:23:53;2.17;;;1.10;;
64938;SDS011;51453;47.738;7.420;2023-07-13T05:26:19;2.22;;;0.90;;
64938;SDS011;51453;47.738;7.420;2023-07-13T05:28:45;3.80;;;1.10;;
64938;SDS011;51453;47.738;7.420;2023-07-13T05:31:11;4.10;;;0.90;;
64938;SDS011;51453;47.738;7.420;2023-07-13T05:33:37;3.50;;;1.00;;
64938;SDS011;51453;47.738;7.420;2023-07-13T05:36:03;2.40;;;0.93;;
64938;SDS011;51453;47.738;7.420;2023-07-13T05:38:29;3.97;;;1.17;;
64938;SDS011;51453;47.738;7.420;2023-07-13T05:40:55;2.50;;;0.80;;
64938;SDS011;51453;47.738;7.420;2023-07-13T05:43:21;2.17;;;1.10;;
64938;SDS011;51453;47.738;7.420;2023-07-13T05:45:47;3.85;;;0.95;;
64938;SDS011;51453;47.738;7.420;2023-07-13T05:48:14;3.03;;;1.02;;
64938;SDS011;51453;47.738;7.420;2023-07-13T05:50:40;3.20;;;0.77;;
64938;SDS011;51453;47.738;7.420;2023-07-13T05:53:06;1.67;;;0.88;;
64938;SDS011;51453;47.738;7.420;2023-07-13T05:55:32;5.88;;;0.80;;
64938;SDS011;51453;47.738;7.420;2023-07-13T05:57:58;3.90;;;0.90;;
64938;SDS011;51453;47.738;7.420;2023-07-13T06:00:25;3.97;;;1.23;;
64938;SDS011;51453;47.738;7.420;2023-07-13T06:02:51;3.13;;;0.80;;
64938;SDS011;51453;47.738;7.420;2023-07-13T06:05:17;2.67;;;0.82;;
64938;SDS011;51453;47.738;7.420;2023-07-13T06:07:42;1.85;;;0.70;;
64938;SDS011;51453;47.738;7.420;2023-07-13T06:10:08;1.77;;;0.80;;
64938;SDS011;51453;47.738;7.420;2023-07-13T06:12:34;4.00;;;1.08;;
64938;SDS011;51453;47.738;7.420;2023-07-13T06:15:00;0.85;;;0.60;;
64938;SDS011;51453;47.738;7.420;2023-07-13T06:17:25;1.10;;;0.70;;
64938;SDS011;51453;47.738;7.420;2023-07-13T06:19:51;1.20;;;0.80;;
64938;SDS011;51453;47.738;7.420;2023-07-13T06:22:17;2.67;;;0.90;;
64938;SDS011;51453;47.738;7.420;2023-07-13T06:24:42;4.03;;;0.80;;
64938;SDS011;51453;47.738;7.420;2023-07-13T06:27:08;3.22;;;1.08;;
64938;SDS011;51453;47.738;7.420;2023-07-13T06:29:33;2.63;;;0.80;;
64938;SDS011;51453;47.738;7.420;2023-07-13T06:31:59;3.25;;;0.93;;
64938;SDS011;51453;47.738;7.420;2023-07-13T06:34:26;3.20;;;0.95;;
64938;SDS011;51453;47.738;7.420;2023-07-13T06:36:51;2.45;;;0.75;;
64938;SDS011;51453;47.738;7.420;2023-07-13T06:39:17;2.47;;;0.70;;
64938;SDS011;51453;47.738;7.420;2023-07-13T06:41:43;4.95;;;0.90;;
64938;SDS011;51453;47.738;7.420;2023-07-13T06:44:08;1.33;;;0.90;;
64938;SDS011;51453;47.738;7.420;2023-07-13T06:46:34;1.50;;;0.80;;
64938;SDS011;51453;47.738;7.420;2023-07-13T06:48:59;4.22;;;1.10;;
64938;SDS011;51453;47.738;7.420;2023-07-13T06:51:25;2.95;;;1.02;;
64938;SDS011;51453;47.738;7.420;2023-07-13T06:53:51;7.57;;;0.90;;
64938;SDS011;51453;47.738;7.420;2023-07-13T06:56:17;4.30;;;0.93;;
64938;SDS011;51453;47.738;7.420;2023-07-13T06:58:42;3.45;;;1.00;;
64938;SDS011;51453;47.738;7.420;2023-07-13T07:01:08;1.80;;;0.80;;
64938;SDS011;51453;47.738;7.420;2023-07-13T07:03:34;5.43;;;0.90;;
64938;SDS011;51453;47.738;7.420;2023-07-13T07:06:12;6.13;;;0.93;;
64938;SDS011;51453;47.738;7.420;2023-07-13T07:08:38;3.13;;;0.90;;
64938;SDS011;51453;47.738;7.420;2023-07-13T07:11:05;3.08;;;1.30;;
64938;SDS011;51453;47.738;7.420;2023-07-13T07:13:33;1.85;;;0.80;;
64938;SDS011;51453;47.738;7.420;2023-07-13T07:15:58;2.13;;;0.98;;
64938;SDS011;51453;47.738;7.420;2023-07-13T07:18:25;5.75;;;1.08;;
64938;SDS011;51453;47.738;7.420;2023-07-13T07:20:51;2.13;;;0.70;;
64938;SDS011;51453;47.738;7.420;2023-07-13T07:23:17;2.22;;;1.17;;
64938;SDS011;51453;47.738;7.420;2023-07-13T07:25:43;2.47;;;0.80;;
64938;SDS011;51453;47.738;7.420;2023-07-13T07:28:11;1.77;;;0.90;;
64938;SDS011;51453;47.738;7.420;2023-07-13T07:30:41;4.53;;;1.10;;
64938;SDS011;51453;47.738;7.420;2023-07-13T07:35:34;3.05;;;0.82;;
64938;SDS011;51453;47.738;7.420;2023-07-13T07:37:59;3.42;;;0.80;;
64938;SDS011;51453;47.738;7.420;2023-07-13T07:40:25;4.68;;;1.00;;
64938;SDS011;51453;47.738;7.420;2023-07-13T07:42:51;3.40;;;0.80;;
64938;SDS011;51453;47.738;7.420;2023-07-13T07:45:17;1.98;;;0.80;;
64938;SDS011;51453;47.738;7.420;2023-07-13T07:47:43;3.90;;;1.10;;
64938;SDS011;51453;47.738;7.420;2023-07-13T07:50:09;3.08;;;0.90;;
64938;SDS011;51453;47.738;7.420;2023-07-13T07:52:35;2.15;;;0.75;;
64938;SDS011;51453;47.738;7.420;2023-07-13T07:55:01;2.08;;;0.80;;
64938;SDS011;51453;47.738;7.420;2023-07-13T07:57:26;3.17;;;1.05;;
64938;SDS011;51453;47.738;7.420;2023-07-13T07:59:52;2.20;;;0.90;;
64938;SDS011;51453;47.738;7.420;2023-07-13T08:02:17;4.05;;;1.08;;
64938;SDS011;51453;47.738;7.420;2023-07-13T08:04:43;2.10;;;0.80;;
64938;SDS011;51453;47.738;7.420;2023-07-13T08:07:09;2.63;;;0.82;;
64938;SDS011;51453;47.738;7.420;2023-07-13T08:09:34;4.75;;;1.02;;
64938;SDS011;51453;47.738;7.420;2023-07-13T08:12:00;4.72;;;0.82;;
64938;SDS011;51453;47.738;7.420;2023-07-13T08:14:25;3.45;;;1.10;;
64938;SDS011;51453;47.738;7.420;2023-07-13T08:16:51;3.70;;;0.90;;
64938;SDS011;51453;47.738;7.420;2023-07-13T08:19:16;2.95;;;1.05;;
64938;SDS011;51453;47.738;7.420;2023-07-13T08:21:42;2.92;;;1.17;;
64938;SDS011;51453;47.738;7.420;2023-07-13T08:24:08;1.95;;;0.82;;
64938;SDS011;51453;47.738;7.420;2023-07-13T08:26:34;1.83;;;0.80;;
64938;SDS011;51453;47.738;7.420;2023-07-13T08:29:00;4.40;;;1.00;;
64938;SDS011;51453;47.738;7.420;2023-07-13T08:31:27;3.80;;;1.15;;
64938;SDS011;51453;47.738;7.420;2023-07-13T08:33:52;3.72;;;0.95;;
64938;SDS011;51453;47.738;7.420;2023-07-13T08:36:18;5.85;;;0.98;;
64938;SDS011;51453;47.738;7.420;2023-07-13T08:38:44;1.15;;;0.93;;
64938;SDS011;51453;47.738;7.420;2023-07-13T08:41:11;2.65;;;0.80;;
64938;SDS011;51453;47.738;7.420;2023-07-13T08:43:39;1.57;;;0.80;;
64938;SDS011;51453;47.738;7.420;2023-07-13T08:48:53;5.57;;;1.20;;
64938;SDS011;51453;47.738;7.420;2023-07-13T08:51:44;2.88;;;1.00;;
64938;SDS011;51453;47.738;7.420;2023-07-13T08:54:32;3.88;;;1.13;;
64938;SDS011;51453;47.738;7.420;2023-07-13T08:56:57;3.33;;;1.10;;
64938;SDS011;51453;47.738;7.420;2023-07-13T08:59:27;0.95;;;0.80;;
64938;SDS011;51453;47.738;7.420;2023-07-13T09:10:15;3.17;;;0.82;;
64938;SDS011;51453;47.738;7.420;2023-07-13T09:12:56;0.52;;;0.52;;
64938;SDS011;51453;47.738;7.420;2023-07-13T09:15:43;3.60;;;0.90;;
64938;SDS011;51453;47.738;7.420;2023-07-13T09:18:11;4.20;;;0.70;;
64938;SDS011;51453;47.738;7.420;2023-07-13T09:23:16;2.03;;;0.93;;
64938;SDS011;51453;47.738;7.420;2023-07-13T09:25:45;3.67;;;0.80;;
64938;SDS011;51453;47.738;7.420;2023-07-13T09:28:19;2.03;;;0.90;;
64938;SDS011;51453;47.738;7.420;2023-07-13T09:30:58;3.42;;;1.00;;
64938;SDS011;51453;47.738;7.420;2023-07-13T09:33:47;3.78;;;1.33;;
64938;SDS011;51453;47.738;7.420;2023-07-13T09:38:49;2.83;;;0.73;;
64938;SDS011;51453;47.738;7.420;2023-07-13T09:41:25;1.85;;;0.70;;
64938;SDS011;51453;47.738;7.420;2023-07-13T09:44:07;3.03;;;0.93;;
64938;SDS011;51453;47.738;7.420;2023-07-13T09:47:00;2.80;;;0.93;;
64938;SDS011;51453;47.738;7.420;2023-07-13T09:49:28;1.77;;;0.90;;
64938;SDS011;51453;47.738;7.420;2023-07-13T09:52:05;2.40;;;0.82;;
64938;SDS011;51453;47.738;7.420;2023-07-13T09:54:35;2.78;;;0.90;;
64938;SDS011;51453;47.738;7.420;2023-07-13T09:57:03;6.05;;;0.90;;
64938;SDS011;51453;47.738;7.420;2023-07-13T09:59:39;2.75;;;0.80;;
64938;SDS011;51453;47.738;7.420;2023-07-13T10:02:28;1.65;;;0.70;;
64938;SDS011;51453;47.738;7.420;2023-07-13T10:04:59;1.27;;;0.82;;
64938;SDS011;51453;47.738;7.420;2023-07-13T10:07:28;1.75;;;0.60;;
64938;SDS011;51453;47.738;7.420;2023-07-13T10:09:55;3.30;;;0.70;;
64938;SDS011;51453;47.738;7.420;2023-07-13T10:12:28;2.58;;;0.90;;
64938;SDS011;51453;47.738;7.420;2023-07-13T10:15:00;3.08;;;0.88;;
64938;SDS011;51453;47.738;7.420;2023-07-13T10:17:29;1.92;;;0.70;;
64938;SDS011;51453;47.738;7.420;2023-07-13T10:20:00;2.75;;;0.63;;
64938;SDS011;51453;47.738;7.420;2023-07-13T10:25:16;1.92;;;0.73;;
64938;SDS011;51453;47.738;7.420;2023-07-13T10:27:43;7.35;;;0.88;;
64938;SDS011;51453;47.738;7.420;2023-07-13T10:30:15;2.15;;;0.70;;
64938;SDS011;51453;47.738;7.420;2023-07-13T10:33:04;1.35;;;0.63;;
64938;SDS011;51453;47.738;7.420;2023-07-13T10:35:36;1.95;;;0.80;;
64938;SDS011;51453;47.738;7.420;2023-07-13T10:38:14;2.55;;;0.60;;
64938;SDS011;51453;47.738;7.420;2023-07-13T10:40:55;2.33;;;0.80;;
64938;SDS011;51453;47.738;7.420;2023-07-13T10:43:31;2.65;;;0.80;;
64938;SDS011;51453;47.738;7.420;2023-07-13T10:46:06;2.92;;;0.70;;
64938;SDS011;51453;47.738;7.420;2023-07-13T10:48:34;0.95;;;0.60;;
64938;SDS011;51453;47.738;7.420;2023-07-13T10:51:02;7.72;;;0.85;;
64938;SDS011;51453;47.738;7.420;2023-07-13T10:53:32;2.63;;;0.70;;
64938;SDS011;51453;47.738;7.420;2023-07-13T11:03:32;2.60;;;0.77;;
64938;SDS011;51453;47.738;7.420;2023-07-13T11:06:05;1.92;;;0.82;;
64938;SDS011;51453;47.738;7.420;2023-07-13T11:08:35;5.18;;;1.00;;
64938;SDS011;51453;47.738;7.420;2023-07-13T11:18:48;3.05;;;0.93;;
64938;SDS011;51453;47.738;7.420;2023-07-13T11:21:52;2.90;;;0.85;;
64938;SDS011;51453;47.738;7.420;2023-07-13T11:27:44;5.35;;;0.80;;
64938;SDS011;51453;47.738;7.420;2023-07-13T11:35:36;3.28;;;0.90;;
64938;SDS011;51453;47.738;7.420;2023-07-13T11:40:45;3.50;;;0.88;;
64938;SDS011;51453;47.738;7.420;2023-07-13T11:43:13;2.75;;;1.15;;
64938;SDS011;51453;47.738;7.420;2023-07-13T11:45:40;2.40;;;0.82;;
64938;SDS011;51453;47.738;7.420;2023-07-13T11:48:17;2.45;;;0.85;;
64938;SDS011;51453;47.738;7.420;2023-07-13T11:50:49;4.07;;;0.90;;
64938;SDS011;51453;47.738;7.420;2023-07-13T11:53:31;2.85;;;1.00;;
64938;SDS011;51453;47.738;7.420;2023-07-13T11:56:03;2.95;;;0.80;;
64938;SDS011;51453;47.738;7.420;2023-07-13T11:58:28;1.80;;;1.00;;
64938;SDS011;51453;47.738;7.420;2023-07-13T12:00:55;2.90;;;0.70;;
64938;SDS011;51453;47.738;7.420;2023-07-13T12:03:25;1.40;;;0.80;;
64938;SDS011;51453;47.738;7.420;2023-07-13T12:05:55;1.50;;;0.80;;
64938;SDS011;51453;47.738;7.420;2023-07-13T12:08:26;2.63;;;0.90;;
64938;SDS011;51453;47.738;7.420;2023-07-13T12:10:56;7.22;;;0.93;;
64938;SDS011;51453;47.738;7.420;2023-07-13T12:13:24;13.93;;;1.30;;
64938;SDS011;51453;47.738;7.420;2023-07-13T12:15:52;2.35;;;0.82;;
64938;SDS011;51453;47.738;7.420;2023-07-13T12:18:20;1.25;;;1.10;;
64938;SDS011;51453;47.738;7.420;2023-07-13T12:20:48;3.20;;;0.90;;
64938;SDS011;51453;47.738;7.420;2023-07-13T12:25:50;1.58;;;1.00;;
64938;SDS011;51453;47.738;7.420;2023-07-13T12:28:28;3.63;;;0.77;;
64938;SDS011;51453;47.738;7.420;2023-07-13T12:31:02;3.17;;;1.10;;
64938;SDS011;51453;47.738;7.420;2023-07-13T12:33:39;3.15;;;0.88;;
64938;SDS011;51453;47.738;7.420;2023-07-13T12:36:06;1.48;;;0.70;;
64938;SDS011;51453;47.738;7.420;2023-07-13T12:38:36;5.38;;;1.10;;
64938;SDS011;51453;47.738;7.420;2023-07-13T12:41:02;2.38;;;0.75;;
64938;SDS011;51453;47.738;7.420;2023-07-13T12:43:28;1.63;;;0.90;;
64938;SDS011;51453;47.738;7.420;2023-07-13T12:46:03;4.68;;;0.80;;
64938;SDS011;51453;47.738;7.420;2023-07-13T12:48:30;3.25;;;0.77;;
64938;SDS011;51453;47.738;7.420;2023-07-13T12:51:08;2.63;;;0.77;;
64938;SDS011;51453;47.738;7.420;2023-07-13T12:53:38;2.78;;;0.85;;
64938;SDS011;51453;47.738;7.420;2023-07-13T12:56:08;1.98;;;0.75;;
64938;SDS011;51453;47.738;7.420;2023-07-13T12:58:43;2.47;;;1.00;;
64938;SDS011;51453;47.738;7.420;2023-07-13T13:01:11;5.57;;;0.75;;
64938;SDS011;51453;47.738;7.420;2023-07-13T13:03:39;3.90;;;0.90;;
64938;SDS011;51453;47.738;7.420;2023-07-13T13:08:43;2.45;;;1.00;;
64938;SDS011;51453;47.738;7.420;2023-07-13T13:11:16;2.67;;;0.90;;
64938;SDS011;51453;47.738;7.420;2023-07-13T13:13:43;2.63;;;0.90;;
64938;SDS011;51453;47.738;7.420;2023-07-13T13:16:14;3.33;;;0.70;;
64938;SDS011;51453;47.738;7.420;2023-07-13T13:18:50;1.23;;;0.60;;
64938;SDS011;51453;47.738;7.420;2023-07-13T13:21:17;6.25;;;1.25;;
64938;SDS011;51453;47.738;7.420;2023-07-13T13:23:44;4.43;;;0.80;;
64938;SDS011;51453;47.738;7.420;2023-07-13T13:26:11;1.67;;;0.85;;
64938;SDS011;51453;47.738;7.420;2023-07-13T13:28:41;5.40;;;1.10;;
64938;SDS011;51453;47.738;7.420;2023-07-13T13:31:09;4.03;;;1.10;;
64938;SDS011;51453;47.738;7.420;2023-07-13T13:33:37;4.80;;;0.93;;
64938;SDS011;51453;47.738;7.420;2023-07-13T13:36:20;1.70;;;0.85;;
64938;SDS011;51453;47.738;7.420;2023-07-13T13:38:48;2.70;;;0.85;;
64938;SDS011;51453;47.738;7.420;2023-07-13T13:41:16;5.18;;;0.90;;
64938;SDS011;51453;47.738;7.420;2023-07-13T13:43:42;1.88;;;0.80;;
64938;SDS011;51453;47.738;7.420;2023-07-13T13:46:19;0.63;;;0.60;;
64938;SDS011;51453;47.738;7.420;2023-07-13T13:48:47;1.85;;;0.80;;
64938;SDS011;51453;47.738;7.420;2023-07-13T13:51:15;2.33;;;0.93;;
64938;SDS011;51453;47.738;7.420;2023-07-13T13:53:44;2.20;;;1.03;;
64938;SDS011;51453;47.738;7.420;2023-07-13T13:56:10;2.75;;;0.90;;
64938;SDS011;51453;47.738;7.420;2023-07-13T13:58:36;2.65;;;0.85;;
64938;SDS011;51453;47.738;7.420;2023-07-13T14:01:02;4.07;;;1.05;;
64938;SDS011;51453;47.738;7.420;2023-07-13T14:05:58;5.65;;;1.00;;
64938;SDS011;51453;47.738;7.420;2023-07-13T14:08:25;1.67;;;0.82;;
64938;SDS011;51453;47.738;7.420;2023-07-13T14:10:51;3.83;;;0.88;;
64938;SDS011;51453;47.738;7.420;2023-07-13T14:15:47;2.25;;;0.90;;
64938;SDS011;51453;47.738;7.420;2023-07-13T14:18:13;2.50;;;0.88;;
64938;SDS011;51453;47.738;7.420;2023-07-13T14:20:43;2.05;;;1.02;;
64938;SDS011;51453;47.738;7.420;2023-07-13T14:23:10;5.32;;;0.90;;
64938;SDS011;51453;47.738;7.420;2023-07-13T14:25:37;6.15;;;1.10;;
64938;SDS011;51453;47.738;7.420;2023-07-13T14:30:47;3.08;;;1.08;;
64938;SDS011;51453;47.738;7.420;2023-07-13T14:33:13;0.80;;;0.80;;
64938;SDS011;51453;47.738;7.420;2023-07-13T14:35:39;5.22;;;1.15;;
64938;SDS011;51453;47.738;7.420;2023-07-13T14:38:08;3.10;;;1.00;;
64938;SDS011;51453;47.738;7.420;2023-07-13T14:40:36;0.93;;;0.70;;
64938;SDS011;51453;47.738;7.420;2023-07-13T14:43:02;2.30;;;0.70;;
64938;SDS011;51453;47.738;7.420;2023-07-13T14:45:28;3.85;;;0.90;;
64938;SDS011;51453;47.738;7.420;2023-07-13T14:47:55;2.15;;;0.70;;
64938;SDS011;51453;47.738;7.420;2023-07-13T14:50:24;2.08;;;0.88;;
64938;SDS011;51453;47.738;7.420;2023-07-13T14:52:55;1.83;;;0.90;;
64938;SDS011;51453;47.738;7.420;2023-07-13T14:55:21;3.05;;;0.93;;
64938;SDS011;51453;47.738;7.420;2023-07-13T14:57:46;1.30;;;0.93;;
64938;SDS011;51453;47.738;7.420;2023-07-13T15:00:17;4.78;;;1.00;;
64938;SDS011;51453;47.738;7.420;2023-07-13T15:02:45;2.58;;;0.70;;
64938;SDS011;51453;47.738;7.420;2023-07-13T15:07:38;1.15;;;0.90;;
64938;SDS011;51453;47.738;7.420;2023-07-13T15:10:12;3.35;;;0.90;;
64938;SDS011;51453;47.738;7.420;2023-07-13T15:12:42;2.20;;;0.70;;
64938;SDS011;51453;47.738;7.420;2023-07-13T15:15:08;1.75;;;1.00;;
64938;SDS011;51453;47.738;7.420;2023-07-13T15:17:38;1.60;;;0.70;;
64938;SDS011;51453;47.738;7.420;2023-07-13T15:22:36;4.22;;;0.63;;
64938;SDS011;51453;47.738;7.420;2023-07-13T15:25:02;3.10;;;0.60;;
64938;SDS011;51453;47.738;7.420;2023-07-13T15:27:32;5.07;;;0.90;;
64938;SDS011;51453;47.738;7.420;2023-07-13T15:29:58;5.75;;;0.85;;
64938;SDS011;51453;47.738;7.420;2023-07-13T15:32:24;3.60;;;0.68;;
64938;SDS011;51453;47.738;7.420;2023-07-13T15:34:49;1.27;;;0.77;;
64938;SDS011;51453;47.738;7.420;2023-07-13T15:37:15;1.25;;;0.75;;
64938;SDS011;51453;47.738;7.420;2023-07-13T15:39:42;1.55;;;0.70;;
64938;SDS011;51453;47.738;7.420;2023-07-13T15:42:18;1.27;;;0.80;;
64938;SDS011;51453;47.738;7.420;2023-07-13T15:44:45;2.58;;;0.65;;
64938;SDS011;51453;47.738;7.420;2023-07-13T15:47:12;3.03;;;0.90;;
64938;SDS011;51453;47.738;7.420;2023-07-13T15:49:39;2.00;;;0.70;;
64938;SDS011;51453;47.738;7.420;2023-07-13T15:52:19;1.38;;;0.75;;
64938;SDS011;51453;47.738;7.420;2023-07-13T15:54:48;2.38;;;0.90;;
64938;SDS011;51453;47.738;7.420;2023-07-13T15:57:15;0.80;;;0.60;;
64938;SDS011;51453;47.738;7.420;2023-07-13T15:59:41;2.13;;;0.50;;
64938;SDS011;51453;47.738;7.420;2023-07-13T16:02:18;4.68;;;0.80;;